Terminal Aerodrome Forecast
Issued by NWS

Current Version | Previous Version | Text Only | Print | Product List | Glossary On
Versions: 1 2 3 4 5 6 7 8 9 10 11 12 13 14 15 16 17 18
404 FTUS41 KBTV 092321 TAFMPV TAF KMPV 092321Z 1000/1024 00000KT P6SM OVC025 FM100600 00000KT P6SM VCSH OVC020 FM101400 VRB03KT 2SM -SN BR OVC018=

USA.gov is the U.S. government's official web portal to all federal, state and local government web resources and services.